Time;durP1;ratioP1;P1;durP2;ratioP2;P2;SDS_P1;SDS_P2;PMS_P1;PMS_P2;Temp;Humidity;BMP_temperature;BMP_pressure;BME280_temperature;BME280_humidity;BME280_pressure;Samples;Min_cycle;Max_cycle;Signal;HPM_P1;HPM_P2
2022/10/11 00:00:42;;;;;;;12.95;1.80;;;;;;;10.42;100.00;101281.41;5181692;28;20065;-75
2022/10/11 00:03:16;;;;;;;20.38;2.75;;;;;;;10.39;100.00;101287.59;5180038;28;20030;-75
2022/10/11 00:05:47;;;;;;;18.02;2.50;;;;;;;10.33;100.00;101286.88;5183382;28;20145;-76
2022/10/11 00:08:17;;;;;;;15.88;2.55;;;;;;;10.32;100.00;101293.00;5181064;28;20407;-75
2022/10/11 00:11:03;;;;;;;16.88;2.80;;;;;;;10.28;100.00;101289.59;5163753;28;20034;-76
2022/10/11 00:13:34;;;;;;;13.98;2.20;;;;;;;10.25;100.00;101294.03;5180822;28;20029;-76
2022/10/11 00:16:09;;;;;;;11.88;2.08;;;;;;;10.27;100.00;101294.84;5180134;28;20487;-72
2022/10/11 00:18:40;;;;;;;11.65;2.00;;;;;;;10.33;100.00;101300.78;5182073;28;20021;-75
2022/10/11 00:21:12;;;;;;;15.18;2.15;;;;;;;10.30;100.00;101306.09;5189764;28;20057;-75
2022/10/11 00:23:43;;;;;;;18.38;2.88;;;;;;;10.19;100.00;101315.06;5180377;28;20056;-75
2022/10/11 00:26:14;;;;;;;17.38;2.55;;;;;;;10.25;100.00;101304.47;5179865;28;20022;-75
2022/10/11 00:28:44;;;;;;;20.27;2.78;;;;;;;10.29;100.00;101300.88;5162288;28;20076;-75
2022/10/11 00:31:15;;;;;;;16.70;2.60;;;;;;;10.13;100.00;101318.66;5179416;28;20472;-75
2022/10/11 00:33:46;;;;;;;15.65;1.92;;;;;;;10.06;100.00;101314.47;5152253;28;20266;-76
2022/10/11 00:36:17;;;;;;;10.38;2.03;;;;;;;10.16;100.00;101320.38;5178053;28;20028;-75
2022/10/11 00:38:48;;;;;;;18.73;2.28;;;;;;;9.99;100.00;101318.06;5179566;28;20037;-75
2022/10/11 00:41:18;;;;;;;13.90;2.10;;;;;;;9.99;100.00;101319.84;5179275;28;20030;-76
2022/10/11 00:44:11;;;;;;;15.23;2.00;;;;;;;9.93;100.00;101322.56;5180127;28;20032;-75
2022/10/11 00:46:50;;;;;;;16.13;2.33;;;;;;;9.94;100.00;101324.28;5176093;28;20043;-75
2022/10/11 00:49:35;;;;;;;19.95;2.17;;;;;;;9.81;100.00;101323.66;5186790;28;20029;-76
2022/10/11 00:52:13;;;;;;;17.92;2.40;;;;;;;9.87;100.00;101325.31;5233072;22;20517;-74
2022/10/11 00:54:46;;;;;;;15.50;2.00;;;;;;;9.91;100.00;101329.56;5219195;28;20181;-72
2022/10/11 00:57:21;;;;;;;10.93;2.20;;;;;;;9.95;100.00;101339.03;5219621;28;20467;-72
2022/10/11 00:59:54;;;;;;;13.00;2.33;;;;;;;9.79;100.00;101337.66;5220535;28;20032;-72
2022/10/11 01:02:25;;;;;;;15.93;2.75;;;;;;;9.83;100.00;101341.94;5220521;28;20029;-72
2022/10/11 01:04:55;;;;;;;14.75;2.80;;;;;;;9.81;100.00;101338.50;5220213;28;20086;-72
2022/10/11 01:07:30;;;;;;;16.33;3.15;;;;;;;9.71;100.00;101337.81;5219426;28;20266;-73
2022/10/11 01:10:00;;;;;;;11.85;2.35;;;;;;;9.80;100.00;101342.00;5219960;28;20032;-72
2022/10/11 01:12:30;;;;;;;14.43;2.88;;;;;;;9.79;100.00;101348.09;5220281;28;20017;-72
2022/10/11 01:15:26;;;;;;;12.98;2.30;;;;;;;9.63;100.00;101349.31;5220280;28;20028;-71
2022/10/11 01:18:18;;;;;;;14.82;2.22;;;;;;;9.64;100.00;101351.03;5218615;28;20029;-71
2022/10/11 01:21:09;;;;;;;14.18;2.35;;;;;;;9.61;100.00;101353.66;5220002;28;20032;-71
2022/10/11 01:24:17;;;;;;;12.48;2.10;;;;;;;9.50;100.00;101360.84;5216854;28;20035;-72
2022/10/11 01:27:06;;;;;;;12.93;1.98;;;;;;;9.45;100.00;101370.53;5217305;28;20027;-72
2022/10/11 01:30:04;;;;;;;13.80;2.45;;;;;;;9.41;100.00;101366.22;5215878;28;20124;-72
2022/10/11 01:32:55;;;;;;;12.07;2.00;;;;;;;9.39;100.00;101363.66;5201539;28;20028;-72
2022/10/11 01:35:35;;;;;;;13.40;2.55;;;;;;;9.45;100.00;101360.94;5218009;28;20025;-72
2022/10/11 01:38:15;;;;;;;16.95;2.53;;;;;;;9.39;100.00;101354.97;5219699;28;20438;-70
2022/10/11 01:41:08;;;;;;;20.15;2.50;;;;;;;9.32;100.00;101363.78;5217445;28;20394;-72
2022/10/11 01:43:40;;;;;;;18.80;2.47;;;;;;;9.31;100.00;101362.91;5215964;28;20032;-72
2022/10/11 01:46:12;;;;;;;8.77;2.03;;;;;;;9.35;100.00;101364.56;5219635;28;20029;-72
2022/10/11 01:48:51;;;;;;;10.15;2.22;;;;;;;9.35;100.00;101366.34;5201108;28;20040;-72
2022/10/11 01:51:26;;;;;;;13.40;2.33;;;;;;;9.23;100.00;101367.44;5223128;28;20036;-71
2022/10/11 01:54:15;;;;;;;17.15;2.33;;;;;;;9.14;100.00;101366.72;5222726;28;20041;-74
2022/10/11 01:57:12;;;;;;;8.45;1.70;;;;;;;9.12;100.00;101373.72;5219465;28;20021;-73
2022/10/11 02:00:17;;;;;;;15.73;2.58;;;;;;;9.11;100.00;101377.22;5219477;28;20108;-72
2022/10/11 02:02:56;;;;;;;11.40;2.25;;;;;;;9.07;100.00;101380.75;5219900;28;20375;-72
2022/10/11 02:06:00;;;;;;;14.20;2.20;;;;;;;9.05;100.00;101379.91;5222007;28;20037;-71
2022/10/11 02:08:53;;;;;;;13.23;2.38;;;;;;;9.00;100.00;101379.13;5220755;28;20051;-71
2022/10/11 02:11:27;;;;;;;23.35;2.33;;;;;;;8.99;100.00;101381.75;5220758;28;20635;-72
2022/10/11 02:14:12;;;;;;;14.00;2.30;;;;;;;8.97;100.00;101383.53;5221983;28;20032;-72
2022/10/11 02:17:02;;;;;;;13.00;2.28;;;;;;;8.94;100.00;101387.06;5218626;28;20110;-72
2022/10/11 02:19:41;;;;;;;16.27;2.58;;;;;;;8.89;100.00;101398.44;5221659;28;20043;-71
2022/10/11 02:22:20;;;;;;;16.30;2.33;;;;;;;8.96;100.00;101390.50;5220904;28;20037;-71
2022/10/11 02:24:54;;;;;;;11.05;2.00;;;;;;;8.86;100.00;101394.13;5220847;28;20090;-72
2022/10/11 02:27:29;;;;;;;14.88;2.40;;;;;;;8.82;100.00;101394.19;5219653;28;20668;-71
2022/10/11 02:30:01;;;;;;;13.85;2.30;;;;;;;8.83;100.00;101398.50;5220293;28;20502;-72
2022/10/11 02:32:33;;;;;;;13.63;2.25;;;;;;;8.85;100.00;101399.34;5219947;28;20028;-72
2022/10/11 02:35:04;;;;;;;9.70;1.85;;;;;;;8.74;100.00;101399.50;5219684;28;20036;-72
2022/10/11 02:37:40;;;;;;;12.57;2.17;;;;;;;8.77;100.00;101404.72;5220740;28;20032;-72
2022/10/11 02:40:32;;;;;;;14.73;2.10;;;;;;;8.67;100.00;101405.72;5218496;28;20040;-70
2022/10/11 02:43:22;;;;;;;14.02;2.03;;;;;;;8.69;100.00;101403.94;5222165;28;20033;-72
2022/10/11 02:45:58;;;;;;;13.57;2.03;;;;;;;8.63;100.00;101408.38;5219939;28;20084;-71
2022/10/11 02:48:30;;;;;;;13.88;2.35;;;;;;;8.60;100.00;101408.44;5221149;28;20116;-72
2022/10/11 02:51:02;;;;;;;11.73;1.50;;;;;;;8.62;100.00;101415.34;5178109;28;1128355;-72
2022/10/11 02:53:33;;;;;;;11.50;2.03;;;;;;;8.57;100.00;101419.75;5209879;28;20529;-72
2022/10/11 02:56:03;;;;;;;9.55;2.00;;;;;;;8.47;100.00;101415.56;5223005;28;20028;-72
2022/10/11 02:58:34;;;;;;;11.73;2.00;;;;;;;8.39;100.00;101422.59;5203605;28;20044;-72
2022/10/11 03:01:05;;;;;;;11.27;2.00;;;;;;;8.39;100.00;101421.75;5203963;28;20029;-71
2022/10/11 03:03:35;;;;;;;12.60;1.77;;;;;;;8.39;100.00;101417.38;5221069;28;20028;-71
2022/10/11 03:06:05;;;;;;;6.80;1.80;;;;;;;8.32;100.00;101426.19;5222211;28;20029;-71
2022/10/11 03:08:36;;;;;;;10.43;2.08;;;;;;;8.27;100.00;101432.31;5220779;28;20033;-72
2022/10/11 03:11:06;;;;;;;12.13;2.38;;;;;;;8.25;100.00;101429.72;5222610;28;20017;-72
2022/10/11 03:13:36;;;;;;;15.52;2.00;;;;;;;8.25;100.00;101442.75;5223093;28;20425;-71
2022/10/11 03:16:07;;;;;;;10.70;1.70;;;;;;;8.27;100.00;101438.41;5222411;28;20021;-71
2022/10/11 03:18:37;;;;;;;10.30;2.25;;;;;;;8.21;100.00;101443.66;5222105;28;20028;-71
2022/10/11 03:21:08;;;;;;;10.98;2.30;;;;;;;8.21;100.00;101451.47;5204734;28;20478;-72
2022/10/11 03:23:38;;;;;;;7.30;1.85;;;;;;;8.20;100.00;101441.94;5222635;28;20104;-72
2022/10/11 03:26:09;;;;;;;11.50;1.85;;;;;;;8.05;100.00;101452.50;5222044;28;20079;-72
2022/10/11 03:28:39;;;;;;;13.63;1.80;;;;;;;7.72;100.00;101452.00;5221416;28;20028;-74
2022/10/11 03:31:09;;;;;;;9.20;1.60;;;;;;;7.66;100.00;101455.53;5221943;28;20462;-72
2022/10/11 03:33:40;;;;;;;8.63;2.03;;;;;;;7.54;100.00;101460.84;5221934;28;20040;-72
2022/10/11 03:36:10;;;;;;;9.90;2.03;;;;;;;7.74;100.00;101455.47;5221626;28;20047;-73
2022/10/11 03:38:40;;;;;;;13.77;1.83;;;;;;;7.66;100.00;101465.94;5221761;28;20506;-71
2022/10/11 03:41:10;;;;;;;9.70;1.90;;;;;;;7.60;100.00;101457.31;5221825;28;20037;-74
2022/10/11 03:43:41;;;;;;;11.18;1.90;;;;;;;7.51;100.00;101467.84;5222069;28;20311;-74
2022/10/11 03:46:11;;;;;;;12.07;2.08;;;;;;;7.50;100.00;101466.09;5221577;28;20039;-72
2022/10/11 03:48:41;;;;;;;9.90;1.90;;;;;;;7.60;100.00;101468.59;5220175;28;20770;-73
2022/10/11 03:51:12;;;;;;;9.43;1.80;;;;;;;7.47;100.00;101477.38;5221022;28;20051;-73
2022/10/11 03:53:42;;;;;;;8.32;1.45;;;;;;;7.43;100.00;101473.09;5221659;28;20048;-74
2022/10/11 03:56:13;;;;;;;5.00;1.40;;;;;;;7.42;100.00;101476.56;5221317;28;20025;-72
2022/10/11 03:58:43;;;;;;;7.13;1.42;;;;;;;7.48;100.00;101480.84;5221011;28;20484;-73
2022/10/11 04:01:14;;;;;;;9.23;1.75;;;;;;;7.48;100.00;101483.44;5221512;28;20057;-74
2022/10/11 04:03:44;;;;;;;7.80;1.65;;;;;;;7.50;100.00;101481.72;5186796;28;20032;-74
2022/10/11 04:06:15;;;;;;;10.50;1.98;;;;;;;7.49;100.00;101483.44;5220763;28;20092;-73
2022/10/11 04:08:45;;;;;;;11.93;1.95;;;;;;;7.54;100.00;101492.06;5221216;28;20095;-73
2022/10/11 04:11:15;;;;;;;15.38;2.67;;;;;;;7.57;100.00;101492.06;5221445;28;20025;-74
2022/10/11 04:13:46;;;;;;;8.95;1.98;;;;;;;7.56;100.00;101492.06;5221269;28;20028;-73
2022/10/11 04:16:16;;;;;;;6.32;1.60;;;;;;;7.63;100.00;101496.31;5220998;28;20082;-72
2022/10/11 04:18:46;;;;;;;14.55;2.30;;;;;;;7.66;100.00;101498.91;5220281;28;20544;-71
2022/10/11 04:21:17;;;;;;;13.05;2.17;;;;;;;7.63;100.00;101504.13;5220559;28;20060;-72
2022/10/11 04:23:47;;;;;;;12.70;2.10;;;;;;;7.70;100.00;101498.84;5221225;28;20032;-72
2022/10/11 04:26:17;;;;;;;12.65;2.28;;;;;;;7.72;100.00;101504.88;5221184;28;20462;-72
2022/10/11 04:28:47;;;;;;;9.70;2.30;;;;;;;7.79;100.00;101503.97;5220665;28;20053;-72
2022/10/11 04:31:18;;;;;;;18.70;3.03;;;;;;;7.77;100.00;101500.53;5220342;28;20390;-71
2022/10/11 04:33:48;;;;;;;14.02;3.95;;;;;;;7.83;100.00;101513.47;5220857;28;20095;-72
2022/10/11 04:36:19;;;;;;;18.58;3.70;;;;;;;7.75;100.00;101510.09;5220863;28;20043;-72
2022/10/11 04:38:50;;;;;;;16.95;3.22;;;;;;;7.76;100.00;101511.81;5221014;28;20043;-72
2022/10/11 04:41:21;;;;;;;11.98;2.67;;;;;;;7.74;100.00;101517.91;5220649;28;20033;-71
2022/10/11 04:43:51;;;;;;;14.07;2.47;;;;;;;7.67;100.00;101511.88;5220530;28;20039;-72
2022/10/11 04:46:22;;;;;;;14.98;3.03;;;;;;;7.69;100.00;101523.13;5220644;28;20025;-71
2022/10/11 04:48:52;;;;;;;12.88;2.63;;;;;;;7.69;100.00;101517.94;5220770;28;20025;-72
2022/10/11 04:51:23;;;;;;;11.00;2.85;;;;;;;7.71;100.00;101526.59;5218544;28;20033;-72
2022/10/11 04:53:54;;;;;;;12.02;2.78;;;;;;;7.69;100.00;101523.13;5220658;28;20029;-72
2022/10/11 04:56:24;;;;;;;14.70;2.08;;;;;;;7.72;100.00;101530.91;5219654;28;20380;-72
2022/10/11 04:58:55;;;;;;;12.80;2.47;;;;;;;7.71;100.00;101534.38;5220426;28;20112;-72
2022/10/11 05:01:25;;;;;;;12.38;2.50;;;;;;;7.70;100.00;101530.06;5219843;28;20029;-72
2022/10/11 05:03:55;;;;;;;15.35;2.40;;;;;;;7.70;100.00;101537.03;5202424;28;20073;-72
2022/10/11 05:06:26;;;;;;;15.48;3.05;;;;;;;7.73;100.00;101532.63;5220206;28;20040;-71
2022/10/11 05:08:56;;;;;;;18.33;3.22;;;;;;;7.75;100.00;101543.03;5220742;28;20375;-72
2022/10/11 05:11:26;;;;;;;15.15;2.72;;;;;;;7.72;100.00;101541.31;5220637;28;20096;-72
2022/10/11 05:13:57;;;;;;;19.52;2.80;;;;;;;7.68;100.00;101549.19;5220657;28;20037;-72
2022/10/11 05:16:27;;;;;;;12.25;2.53;;;;;;;7.59;100.00;101552.72;5219703;28;20032;-70
2022/10/11 05:18:57;;;;;;;9.93;2.35;;;;;;;7.44;100.00;101559.75;5220840;28;20025;-71
2022/10/11 05:21:28;;;;;;;11.07;2.00;;;;;;;7.43;100.00;101560.63;5220534;28;20074;-72
2022/10/11 05:23:58;;;;;;;11.55;2.13;;;;;;;7.36;100.00;101564.16;5224009;28;20067;-73
2022/10/11 05:26:29;;;;;;;10.75;2.08;;;;;;;7.44;100.00;101560.63;5223822;28;20044;-72
2022/10/11 05:28:59;;;;;;;10.80;3.13;;;;;;;7.45;100.00;101559.75;5224642;28;20029;-71
2022/10/11 05:31:30;;;;;;;12.05;2.58;;;;;;;7.56;100.00;101564.88;5224281;28;20467;-72
2022/10/11 05:34:00;;;;;;;14.95;3.00;;;;;;;7.62;100.00;101564.81;5223145;28;20044;-73
2022/10/11 05:36:30;;;;;;;15.98;2.70;;;;;;;7.65;100.00;101573.47;5223170;28;20036;-72
2022/10/11 05:39:01;;;;;;;14.60;2.00;;;;;;;7.71;100.00;101569.97;5224298;28;20060;-72
2022/10/11 05:41:31;;;;;;;11.25;2.30;;;;;;;7.73;100.00;101573.41;5223944;28;20033;-72
2022/10/11 05:44:01;;;;;;;10.18;2.20;;;;;;;7.79;100.00;101573.34;5224922;28;20079;-72
2022/10/11 05:46:32;;;;;;;10.98;2.00;;;;;;;7.81;100.00;101577.69;5224074;28;20032;-72
2022/10/11 05:49:02;;;;;;;12.43;2.08;;;;;;;7.76;100.00;101578.59;5223333;28;20021;-72
2022/10/11 05:51:32;;;;;;;8.40;2.00;;;;;;;7.85;100.00;101588.94;5221893;28;20059;-72
2022/10/11 05:54:03;;;;;;;9.63;2.17;;;;;;;7.91;100.00;101581.91;5222516;28;20048;-72
2022/10/11 05:56:33;;;;;;;8.10;1.63;;;;;;;7.59;100.00;101596.06;5223094;28;20029;-72
2022/10/11 05:59:04;;;;;;;8.60;1.70;;;;;;;7.63;100.00;101595.16;5204592;28;20025;-72
2022/10/11 06:01:34;;;;;;;7.05;1.30;;;;;;;7.56;100.00;101596.94;5224761;28;20114;-72
2022/10/11 06:04:04;;;;;;;10.75;1.70;;;;;;;7.28;100.00;101611.00;5223749;28;20036;-72
2022/10/11 06:06:35;;;;;;;9.27;1.60;;;;;;;7.20;100.00;101604.13;5224184;28;20063;-72
2022/10/11 06:09:05;;;;;;;11.95;1.95;;;;;;;7.09;100.00;101611.09;5224198;28;20051;-72
2022/10/11 06:11:35;;;;;;;13.32;2.00;;;;;;;7.04;100.00;101606.81;5224559;28;20545;-72
2022/10/11 06:14:06;;;;;;;13.13;2.25;;;;;;;6.98;100.00;101614.63;5219917;28;20036;-72
2022/10/11 06:16:36;;;;;;;12.93;1.90;;;;;;;7.12;100.00;101616.28;5224068;28;20029;-72
2022/10/11 06:19:07;;;;;;;14.02;2.42;;;;;;;7.34;100.00;101617.94;5224190;28;20017;-72
2022/10/11 06:21:37;;;;;;;9.13;2.08;;;;;;;7.50;100.00;101617.81;5223783;28;20394;-72
2022/10/11 06:24:08;;;;;;;14.40;2.67;;;;;;;7.47;100.00;101625.63;5224257;28;20629;-72
2022/10/11 06:26:38;;;;;;;12.35;2.08;;;;;;;7.60;100.00;101619.47;5223589;28;20021;-72
2022/10/11 06:29:09;;;;;;;13.07;2.35;;;;;;;7.55;100.00;101626.44;5222558;28;20422;-72
2022/10/11 06:31:39;;;;;;;11.40;2.15;;;;;;;7.61;100.00;101635.94;5223537;28;20108;-72
2022/10/11 06:34:10;;;;;;;10.10;2.38;;;;;;;7.76;100.00;101628.03;5223190;28;20469;-72
2022/10/11 06:36:40;;;;;;;10.85;2.40;;;;;;;7.79;100.00;101639.28;5223845;28;20104;-72
2022/10/11 06:39:10;;;;;;;10.30;2.03;;;;;;;7.66;100.00;101644.59;5223358;28;20592;-72
2022/10/11 06:41:41;;;;;;;13.68;2.80;;;;;;;7.70;100.00;101643.69;5223298;28;20120;-72
2022/10/11 06:44:12;;;;;;;13.23;2.60;;;;;;;7.81;100.00;101645.34;5223044;28;20031;-72
2022/10/11 06:46:42;;;;;;;12.95;2.45;;;;;;;7.87;100.00;101652.25;5222773;28;20043;-72
2022/10/11 06:49:13;;;;;;;8.18;1.95;;;;;;;8.12;100.00;101653.75;5222911;28;20036;-72
2022/10/11 06:51:43;;;;;;;13.85;2.50;;;;;;;8.23;100.00;101652.81;5223665;28;20657;-72
2022/10/11 06:54:14;;;;;;;17.40;2.75;;;;;;;8.33;100.00;101662.28;5223491;28;20036;-73
2022/10/11 06:56:45;;;;;;;12.85;2.70;;;;;;;8.52;100.00;101649.97;5222544;28;20025;-72
2022/10/11 06:59:15;;;;;;;13.80;2.72;;;;;;;8.47;100.00;101660.44;5223104;28;20043;-72
2022/10/11 07:01:45;;;;;;;12.07;2.47;;;;;;;8.38;100.00;101660.50;5223424;28;20037;-72
2022/10/11 07:04:16;;;;;;;12.48;2.40;;;;;;;8.77;100.00;101674.88;5223794;28;20025;-72
2022/10/11 07:06:46;;;;;;;12.02;2.78;;;;;;;8.97;100.00;101667.69;5223317;28;20083;-72
2022/10/11 07:09:16;;;;;;;11.15;2.58;;;;;;;9.04;100.00;101669.38;5223139;28;20461;-72
2022/10/11 07:11:47;;;;;;;12.60;2.60;;;;;;;9.33;100.00;101665.50;5205168;28;20078;-72
2022/10/11 07:14:18;;;;;;;13.93;2.67;;;;;;;9.74;100.00;101678.84;5222687;28;20393;-72
2022/10/11 07:16:48;;;;;;;12.18;2.20;;;;;;;10.13;100.00;101675.66;5221962;28;20029;-72
2022/10/11 07:19:18;;;;;;;11.27;2.50;;;;;;;11.10;100.00;101677.31;5222489;28;20478;-72
2022/10/11 07:21:49;;;;;;;9.27;2.10;;;;;;;11.88;100.00;101675.63;5222568;28;20310;-73
2022/10/11 07:24:19;;;;;;;11.52;2.45;;;;;;;12.93;90.69;101670.31;5222831;28;20368;-73
2022/10/11 07:26:49;;;;;;;6.25;1.70;;;;;;;14.58;85.96;101670.38;5222392;28;20029;-73
2022/10/11 07:29:20;;;;;;;8.95;1.90;;;;;;;14.87;84.47;101666.66;5222914;28;20041;-72
2022/10/11 07:31:50;;;;;;;6.57;1.85;;;;;;;15.76;83.23;101666.81;5222452;28;20020;-73
2022/10/11 07:34:21;;;;;;;9.65;2.30;;;;;;;16.39;77.73;101666.84;5222507;28;20037;-73
2022/10/11 07:36:52;;;;;;;9.65;2.75;;;;;;;16.69;77.96;101668.19;5221739;28;20080;-73
2022/10/11 07:39:22;;;;;;;10.38;2.00;;;;;;;17.05;75.66;101672.72;5222135;28;20072;-74
2022/10/11 07:41:52;;;;;;;11.30;2.40;;;;;;;17.10;71.01;101677.78;5222381;28;20665;-73
2022/10/11 07:44:22;;;;;;;16.20;3.07;;;;;;;16.91;76.30;101669.84;5204381;28;20112;-74
2022/10/11 07:46:53;;;;;;;11.63;2.28;;;;;;;16.60;75.21;101678.28;5221601;28;20287;-73
2022/10/11 07:49:23;;;;;;;10.50;2.47;;;;;;;16.75;74.10;101681.13;5221635;28;20538;-73
2022/10/11 07:51:53;;;;;;;10.60;2.47;;;;;;;16.90;74.45;101681.34;5221938;28;20283;-73
2022/10/11 07:54:24;;;;;;;11.63;2.53;;;;;;;17.74;72.29;101680.09;5222046;28;20359;-73
2022/10/11 07:56:54;;;;;;;10.52;2.53;;;;;;;18.13;69.08;101682.59;5221894;28;20111;-73
2022/10/11 07:59:24;;;;;;;8.55;2.10;;;;;;;17.75;74.47;101686.22;5223025;28;20025;-73
2022/10/11 08:01:55;;;;;;;8.15;2.10;;;;;;;18.17;70.32;101676.25;5191161;28;20032;-73
2022/10/11 08:04:25;;;;;;;17.73;2.77;;;;;;;18.94;68.22;101685.47;5221927;28;20169;-73
2022/10/11 08:06:55;;;;;;;15.23;2.45;;;;;;;18.26;69.89;101681.06;5221671;28;20284;-74
2022/10/11 08:09:26;;;;;;;14.60;2.20;;;;;;;17.99;70.05;101693.00;5221845;28;20521;-73
2022/10/11 08:11:56;;;;;;;18.53;2.93;;;;;;;17.80;71.06;101694.81;5221333;28;20541;-73
2022/10/11 08:14:26;;;;;;;9.23;2.45;;;;;;;19.09;68.34;101684.66;5221269;28;20283;-73
2022/10/11 08:16:58;;;;;;;8.80;1.98;;;;;;;18.12;69.66;101686.19;5221769;28;20028;-73
2022/10/11 08:19:28;;;;;;;9.93;2.05;;;;;;;17.87;72.13;101690.94;5221204;28;20029;-73
2022/10/11 08:21:59;;;;;;;10.98;2.40;;;;;;;18.66;68.63;101691.44;5221302;28;20525;-73
2022/10/11 08:24:29;;;;;;;8.95;1.95;;;;;;;19.18;68.53;101694.81;5221826;28;20486;-73
2022/10/11 08:26:59;;;;;;;13.57;2.40;;;;;;;18.10;69.46;101701.28;5221213;28;20044;-73
2022/10/11 08:29:31;;;;;;;12.70;2.33;;;;;;;17.93;71.45;101702.09;5221504;28;20029;-73
2022/10/11 08:32:01;;;;;;;11.05;2.15;;;;;;;18.76;67.54;101698.81;5221177;28;20027;-73
2022/10/11 08:34:31;;;;;;;12.33;2.37;;;;;;;19.16;66.56;101696.72;5221119;28;20033;-73
2022/10/11 08:37:01;;;;;;;9.40;2.20;;;;;;;19.29;69.07;101702.19;5221019;28;20355;-73
2022/10/11 08:39:32;;;;;;;10.15;2.42;;;;;;;18.71;68.52;101702.63;5203382;28;20478;-73
2022/10/11 08:42:10;;;;;;;9.82;2.10;;;;;;;19.51;67.48;101708.94;5221147;28;20027;-73
2022/10/11 08:44:44;;;;;;;10.05;2.00;;;;;;;19.85;66.27;101708.78;5216096;28;20630;-73
2022/10/11 08:47:20;;;;;;;10.45;2.22;;;;;;;20.12;65.07;101703.75;5220631;28;20085;-73
2022/10/11 08:49:51;;;;;;;11.45;2.15;;;;;;;18.31;71.28;101708.22;5220991;28;20029;-73
2022/10/11 08:52:41;;;;;;;10.57;2.30;;;;;;;17.33;72.38;101712.00;5220465;28;20025;-73
2022/10/11 08:55:20;;;;;;;11.05;2.15;;;;;;;16.93;74.34;101715.53;5217209;28;20490;-72
2022/10/11 08:57:54;;;;;;;12.73;2.33;;;;;;;15.92;78.86;101725.94;5220907;28;20024;-72
2022/10/11 09:00:29;;;;;;;12.80;2.20;;;;;;;15.67;80.56;101717.25;5220885;28;20115;-72
2022/10/11 09:03:03;;;;;;;12.55;1.95;;;;;;;15.52;82.04;101716.97;5220977;28;20060;-73
2022/10/11 09:05:38;;;;;;;8.13;1.77;;;;;;;15.19;81.52;101724.28;5221188;28;20029;-72
2022/10/11 09:08:27;;;;;;;13.20;2.70;;;;;;;15.17;82.82;101727.91;5216813;28;20047;-72
2022/10/11 09:11:10;;;;;;;14.65;2.38;;;;;;;14.91;84.93;101720.94;5220805;28;20033;-72
2022/10/11 09:14:00;;;;;;;12.75;2.10;;;;;;;15.21;84.11;101725.09;5217593;28;20056;-72
2022/10/11 09:16:46;;;;;;;11.88;2.50;;;;;;;14.91;85.43;101726.19;5220752;28;20118;-73
2022/10/11 09:19:35;;;;;;;14.23;2.22;;;;;;;15.13;84.33;101728.91;5217976;28;20116;-72
2022/10/11 09:22:41;;;;;;;8.98;1.95;;;;;;;15.37;82.94;101723.66;5220655;28;20397;-73
2022/10/11 09:25:27;;;;;;;11.88;1.88;;;;;;;15.47;82.34;101719.78;5190423;28;20128;-73
2022/10/11 09:28:15;;;;;;;10.35;2.28;;;;;;;15.52;82.50;101723.09;5220599;28;20037;-72
2022/10/11 09:30:49;;;;;;;9.70;2.40;;;;;;;15.51;83.23;101723.16;5217526;28;20124;-72
2022/10/11 09:33:40;;;;;;;12.17;2.23;;;;;;;15.03;85.67;101725.75;5220108;28;20166;-72
2022/10/11 09:36:21;;;;;;;11.23;2.20;;;;;;;15.08;85.09;101729.09;5217102;28;20061;-72
2022/10/11 09:39:04;;;;;;;12.80;2.28;;;;;;;14.69;86.53;101723.47;5220259;28;20368;-72
2022/10/11 09:41:49;;;;;;;10.60;2.15;;;;;;;14.95;85.49;101727.81;5219857;28;20037;-72
2022/10/11 09:44:24;;;;;;;13.75;2.40;;;;;;;15.15;83.73;101729.75;5218104;28;20044;-72
2022/10/11 09:46:56;;;;;;;18.40;2.33;;;;;;;15.14;86.27;101731.50;5220198;28;20063;-72
2022/10/11 09:49:47;;;;;;;15.20;2.08;;;;;;;14.95;86.31;101733.06;5218615;28;20503;-72
2022/10/11 09:52:21;;;;;;;13.40;2.10;;;;;;;14.76;87.58;101731.13;5219143;28;20090;-72
2022/10/11 09:54:59;;;;;;;11.50;2.05;;;;;;;15.14;85.54;101728.88;5220618;28;20123;-72
2022/10/11 09:57:32;;;;;;;12.45;2.25;;;;;;;14.80;84.88;101724.81;5220004;28;20056;-73
2022/10/11 10:00:26;;;;;;;12.95;2.13;;;;;;;14.95;85.62;101732.19;5219975;28;20024;-72
2022/10/11 10:02:59;;;;;;;10.13;1.90;;;;;;;15.22;85.90;101721.53;5218008;28;20049;-71
2022/10/11 10:05:35;;;;;;;11.65;1.73;;;;;;;15.14;85.76;101734.13;5220549;28;20407;-72
2022/10/11 10:08:08;;;;;;;9.02;1.75;;;;;;;15.27;85.52;101730.16;5220556;28;20032;-74
2022/10/11 10:10:50;;;;;;;11.30;1.95;;;;;;;15.51;85.82;101728.44;5225966;28;20029;-74
2022/10/11 10:13:32;;;;;;;9.45;1.92;;;;;;;15.07;85.94;101724.75;5224570;28;20063;-73
2022/10/11 10:16:04;;;;;;;11.73;2.50;;;;;;;15.43;85.10;101730.47;5222572;28;20142;-73
2022/10/11 10:18:47;;;;;;;11.82;2.17;;;;;;;15.13;86.05;101724.53;5223259;28;20114;-73
2022/10/11 10:21:26;;;;;;;10.43;2.22;;;;;;;15.42;83.94;101724.38;5221637;28;20112;-74
2022/10/11 10:24:01;;;;;;;12.88;1.92;;;;;;;15.38;82.07;101727.16;5224155;28;20024;-73
2022/10/11 10:26:32;;;;;;;10.32;1.80;;;;;;;15.01;83.72;101735.47;5223898;28;20028;-73
2022/10/11 10:29:15;;;;;;;9.02;1.90;;;;;;;15.21;83.84;101733.00;5223974;28;20051;-74
2022/10/11 10:31:52;;;;;;;10.27;1.67;;;;;;;15.34;84.12;101726.41;5221720;28;20017;-72
2022/10/11 10:34:30;;;;;;;11.68;1.92;;;;;;;14.96;82.95;101740.06;5223443;28;20048;-72
2022/10/11 10:37:19;;;;;;;15.10;2.10;;;;;;;15.21;82.88;101737.41;5222680;28;20551;-72
2022/10/11 10:40:04;;;;;;;10.52;1.83;;;;;;;15.21;82.46;101729.50;5220596;28;20074;-72
2022/10/11 10:42:35;;;;;;;10.00;1.80;;;;;;;15.00;81.51;101741.66;5223082;28;20028;-72
2022/10/11 10:45:07;;;;;;;10.48;1.95;;;;;;;14.91;83.29;101730.59;5223135;28;20055;-72
2022/10/11 10:47:55;;;;;;;15.73;2.28;;;;;;;14.90;82.44;101727.13;5216718;28;20250;-72
2022/10/11 10:50:39;;;;;;;8.77;2.10;;;;;;;14.85;84.13;101726.41;5222803;28;20042;-72
2022/10/11 10:53:41;;;;;;;12.18;1.70;;;;;;;14.68;82.99;101725.28;5219366;28;20447;-71
2022/10/11 10:56:17;;;;;;;13.32;2.05;;;;;;;14.85;83.27;101736.09;5218198;28;20056;-72
2022/10/11 10:59:28;;;;;;;8.23;1.73;;;;;;;14.77;80.72;101727.56;5224131;28;20021;-71
2022/10/11 11:02:01;;;;;;;11.98;1.75;;;;;;;14.97;78.33;101722.47;5177522;28;20038;-72
2022/10/11 11:04:33;;;;;;;10.57;1.80;;;;;;;14.98;74.59;101722.44;5178548;28;20036;-71
2022/10/11 11:07:23;;;;;;;7.57;1.30;;;;;;;15.13;75.72;101719.25;5203826;28;20140;-72
2022/10/11 11:10:20;;;;;;;8.27;1.63;;;;;;;15.17;77.67;101718.22;5221485;28;20021;-72
2022/10/11 11:13:01;;;;;;;11.52;1.80;;;;;;;15.14;77.53;101718.34;5209498;28;20033;-72
2022/10/11 11:16:00;;;;;;;11.73;2.00;;;;;;;15.23;73.69;101722.41;5223234;28;20410;-72
2022/10/11 11:18:42;;;;;;;9.45;1.40;;;;;;;15.19;74.62;101728.72;5218440;28;20044;-71
2022/10/11 11:21:21;;;;;;;12.45;1.88;;;;;;;15.10;72.63;101724.63;5220157;28;20052;-72
2022/10/11 11:23:57;;;;;;;9.20;1.60;;;;;;;15.09;75.00;101722.03;5222827;28;20071;-72
2022/10/11 11:26:43;;;;;;;11.48;1.67;;;;;;;14.98;75.38;101721.59;5222812;28;20029;-72
2022/10/11 11:29:32;;;;;;;;;;;;;;;15.02;76.09;101726.66;5219782;28;20042;-71
2022/10/11 11:32:24;;;;;;;9.68;1.48;;;;;;;15.12;78.51;101714.91;5204566;28;19919;-72
2022/10/11 11:35:35;;;;;;;5.15;1.42;;;;;;;15.26;76.20;101722.28;5222469;28;20036;-71
2022/10/11 11:38:29;;;;;;;10.63;1.77;;;;;;;15.33;75.20;101715.94;5217455;28;20364;-72
2022/10/11 11:41:04;;;;;;;10.07;1.60;;;;;;;15.19;75.13;101716.38;5221179;28;20029;-72
2022/10/11 11:44:04;;;;;;;13.55;2.08;;;;;;;15.18;77.21;101719.94;5204872;28;20516;-72
2022/10/11 11:46:42;;;;;;;13.60;1.80;;;;;;;15.32;74.02;101722.97;5215290;28;20041;-72
2022/10/11 11:49:23;;;;;;;10.15;1.35;;;;;;;15.32;74.79;101714.22;5219059;28;20031;-72
2022/10/11 11:51:55;;;;;;;7.70;1.50;;;;;;;15.32;75.75;101715.06;5221698;28;20483;-72
2022/10/11 11:54:49;;;;;;;10.43;1.67;;;;;;;15.25;74.59;101713.56;5222205;28;20032;-72
2022/10/11 11:57:19;;;;;;;9.75;2.08;;;;;;;15.38;74.30;101711.34;5219758;28;20032;-72